sensor_id;sensor_type;location;lat;lon;timestamp;temperature;humidity
22813;DHT22;11573;51.334;3.244;2023-12-20T00:02:17;8.10;99.90
22813;DHT22;11573;51.334;3.244;2023-12-20T00:04:44;8.10;99.90
22813;DHT22;11573;51.334;3.244;2023-12-20T00:07:11;8.10;99.90
22813;DHT22;11573;51.334;3.244;2023-12-20T00:09:39;8.10;99.90
22813;DHT22;11573;51.334;3.244;2023-12-20T00:12:06;8.00;99.90
22813;DHT22;11573;51.334;3.244;2023-12-20T00:14:33;8.00;99.90
22813;DHT22;11573;51.334;3.244;2023-12-20T00:17:00;8.10;99.90
22813;DHT22;11573;51.334;3.244;2023-12-20T00:19:27;8.10;99.90
22813;DHT22;11573;51.334;3.244;2023-12-20T00:21:54;8.10;99.90
22813;DHT22;11573;51.334;3.244;2023-12-20T00:24:21;8.20;99.90
22813;DHT22;11573;51.334;3.244;2023-12-20T00:26:48;8.20;99.90
22813;DHT22;11573;51.334;3.244;2023-12-20T00:29:15;8.10;99.90
22813;DHT22;11573;51.334;3.244;2023-12-20T00:31:42;8.10;99.90
22813;DHT22;11573;51.334;3.244;2023-12-20T00:34:09;8.10;99.90
22813;DHT22;11573;51.334;3.244;2023-12-20T00:36:36;8.20;99.90
22813;DHT22;11573;51.334;3.244;2023-12-20T00:39:03;8.20;99.90
22813;DHT22;11573;51.334;3.244;2023-12-20T00:41:31;8.20;99.90
22813;DHT22;11573;51.334;3.244;2023-12-20T00:43:58;8.20;99.90
22813;DHT22;11573;51.334;3.244;2023-12-20T00:46:25;8.10;99.90
22813;DHT22;11573;51.334;3.244;2023-12-20T00:48:52;8.10;99.90
22813;DHT22;11573;51.334;3.244;2023-12-20T00:51:20;8.20;99.90
22813;DHT22;11573;51.334;3.244;2023-12-20T00:53:47;8.20;99.90
22813;DHT22;11573;51.334;3.244;2023-12-20T00:56:16;8.20;99.90
22813;DHT22;11573;51.334;3.244;2023-12-20T00:58:43;8.20;99.90
22813;DHT22;11573;51.334;3.244;2023-12-20T01:01:10;8.30;99.90
22813;DHT22;11573;51.334;3.244;2023-12-20T01:03:37;8.20;99.90
22813;DHT22;11573;51.334;3.244;2023-12-20T01:06:05;8.30;99.90
22813;DHT22;11573;51.334;3.244;2023-12-20T01:08:32;8.20;99.90
22813;DHT22;11573;51.334;3.244;2023-12-20T01:11:04;8.30;99.90
22813;DHT22;11573;51.334;3.244;2023-12-20T01:13:31;8.30;99.90
22813;DHT22;11573;51.334;3.244;2023-12-20T01:15:58;8.30;99.90
22813;DHT22;11573;51.334;3.244;2023-12-20T01:18:26;8.30;99.90
22813;DHT22;11573;51.334;3.244;2023-12-20T01:20:52;8.30;99.90
22813;DHT22;11573;51.334;3.244;2023-12-20T01:23:19;8.30;99.90
22813;DHT22;11573;51.334;3.244;2023-12-20T01:25:47;8.30;99.90
22813;DHT22;11573;51.334;3.244;2023-12-20T01:28:14;8.30;99.90
22813;DHT22;11573;51.334;3.244;2023-12-20T01:30:41;8.30;99.90
22813;DHT22;11573;51.334;3.244;2023-12-20T01:33:08;8.20;99.90
22813;DHT22;11573;51.334;3.244;2023-12-20T01:35:35;8.20;99.90
22813;DHT22;11573;51.334;3.244;2023-12-20T01:38:02;8.20;99.90
22813;DHT22;11573;51.334;3.244;2023-12-20T01:40:29;8.10;99.90
22813;DHT22;11573;51.334;3.244;2023-12-20T01:43:00;8.20;99.90
22813;DHT22;11573;51.334;3.244;2023-12-20T01:45:28;8.20;99.90
22813;DHT22;11573;51.334;3.244;2023-12-20T01:47:57;8.20;99.90
22813;DHT22;11573;51.334;3.244;2023-12-20T01:50:24;8.30;99.90
22813;DHT22;11573;51.334;3.244;2023-12-20T01:52:52;8.20;99.90
22813;DHT22;11573;51.334;3.244;2023-12-20T01:55:22;8.20;99.90
22813;DHT22;11573;51.334;3.244;2023-12-20T01:57:49;8.20;99.90
22813;DHT22;11573;51.334;3.244;2023-12-20T02:00:18;8.20;99.90
22813;DHT22;11573;51.334;3.244;2023-12-20T02:02:45;8.20;99.90
22813;DHT22;11573;51.334;3.244;2023-12-20T02:05:12;8.20;99.90
22813;DHT22;11573;51.334;3.244;2023-12-20T02:07:40;8.10;99.90
22813;DHT22;11573;51.334;3.244;2023-12-20T02:10:07;8.20;99.90
22813;DHT22;11573;51.334;3.244;2023-12-20T02:12:34;8.20;99.90
22813;DHT22;11573;51.334;3.244;2023-12-20T02:15:02;8.20;99.90
22813;DHT22;11573;51.334;3.244;2023-12-20T02:17:30;8.30;99.90
22813;DHT22;11573;51.334;3.244;2023-12-20T02:19:58;8.20;99.90
22813;DHT22;11573;51.334;3.244;2023-12-20T02:22:25;8.20;99.90
22813;DHT22;11573;51.334;3.244;2023-12-20T02:24:52;8.20;99.90
22813;DHT22;11573;51.334;3.244;2023-12-20T02:27:20;8.20;99.90
22813;DHT22;11573;51.334;3.244;2023-12-20T02:29:50;8.20;99.90
22813;DHT22;11573;51.334;3.244;2023-12-20T02:32:18;8.20;99.90
22813;DHT22;11573;51.334;3.244;2023-12-20T02:34:47;8.20;99.90
22813;DHT22;11573;51.334;3.244;2023-12-20T02:37:15;8.20;99.90
22813;DHT22;11573;51.334;3.244;2023-12-20T02:39:42;8.20;99.90
22813;DHT22;11573;51.334;3.244;2023-12-20T02:42:09;8.20;99.90
22813;DHT22;11573;51.334;3.244;2023-12-20T02:44:36;8.10;99.90
22813;DHT22;11573;51.334;3.244;2023-12-20T02:47:04;8.10;99.90
22813;DHT22;11573;51.334;3.244;2023-12-20T02:49:31;8.10;99.90
22813;DHT22;11573;51.334;3.244;2023-12-20T02:51:58;8.20;99.90
22813;DHT22;11573;51.334;3.244;2023-12-20T02:54:25;8.10;99.90
22813;DHT22;11573;51.334;3.244;2023-12-20T02:56:52;8.20;99.90
22813;DHT22;11573;51.334;3.244;2023-12-20T02:59:18;8.20;99.90
22813;DHT22;11573;51.334;3.244;2023-12-20T03:01:46;8.10;99.90
22813;DHT22;11573;51.334;3.244;2023-12-20T03:04:13;8.20;99.90
22813;DHT22;11573;51.334;3.244;2023-12-20T03:06:40;8.20;99.90
22813;DHT22;11573;51.334;3.244;2023-12-20T03:09:07;8.20;99.90
22813;DHT22;11573;51.334;3.244;2023-12-20T03:11:34;8.20;99.90
22813;DHT22;11573;51.334;3.244;2023-12-20T03:14:01;8.20;99.90
22813;DHT22;11573;51.334;3.244;2023-12-20T03:16:28;8.20;99.90
22813;DHT22;11573;51.334;3.244;2023-12-20T03:18:55;8.20;99.90
22813;DHT22;11573;51.334;3.244;2023-12-20T03:21:22;8.20;99.90
22813;DHT22;11573;51.334;3.244;2023-12-20T03:23:49;8.20;99.90
22813;DHT22;11573;51.334;3.244;2023-12-20T03:26:16;8.20;99.90
22813;DHT22;11573;51.334;3.244;2023-12-20T03:28:43;8.20;99.90
22813;DHT22;11573;51.334;3.244;2023-12-20T03:31:10;8.20;99.90
22813;DHT22;11573;51.334;3.244;2023-12-20T03:33:37;8.20;99.90
22813;DHT22;11573;51.334;3.244;2023-12-20T03:36:05;8.20;99.90
22813;DHT22;11573;51.334;3.244;2023-12-20T03:38:32;8.20;99.90
22813;DHT22;11573;51.334;3.244;2023-12-20T03:40:59;8.20;99.90
22813;DHT22;11573;51.334;3.244;2023-12-20T03:43:26;8.10;99.90
22813;DHT22;11573;51.334;3.244;2023-12-20T03:45:53;8.10;99.90
22813;DHT22;11573;51.334;3.244;2023-12-20T03:48:20;8.10;99.90
22813;DHT22;11573;51.334;3.244;2023-12-20T03:50:47;8.00;99.90
22813;DHT22;11573;51.334;3.244;2023-12-20T03:53:14;8.10;99.90
22813;DHT22;11573;51.334;3.244;2023-12-20T03:55:41;8.00;99.90
22813;DHT22;11573;51.334;3.244;2023-12-20T03:58:08;8.00;99.90
22813;DHT22;11573;51.334;3.244;2023-12-20T04:00:35;8.00;99.90
22813;DHT22;11573;51.334;3.244;2023-12-20T04:03:02;8.00;99.90
22813;DHT22;11573;51.334;3.244;2023-12-20T04:05:29;8.00;99.90
22813;DHT22;11573;51.334;3.244;2023-12-20T04:07:59;8.00;99.90
22813;DHT22;11573;51.334;3.244;2023-12-20T04:10:26;8.00;99.90
22813;DHT22;11573;51.334;3.244;2023-12-20T04:12:53;8.00;99.90
22813;DHT22;11573;51.334;3.244;2023-12-20T04:15:21;8.00;99.90
22813;DHT22;11573;51.334;3.244;2023-12-20T04:17:48;8.10;99.90
22813;DHT22;11573;51.334;3.244;2023-12-20T04:20:16;8.00;99.90
22813;DHT22;11573;51.334;3.244;2023-12-20T04:22:43;8.00;99.90
22813;DHT22;11573;51.334;3.244;2023-12-20T04:25:10;7.90;99.90
22813;DHT22;11573;51.334;3.244;2023-12-20T04:27:37;7.90;99.90
22813;DHT22;11573;51.334;3.244;2023-12-20T04:30:05;7.90;99.90
22813;DHT22;11573;51.334;3.244;2023-12-20T04:32:32;7.90;99.90
22813;DHT22;11573;51.334;3.244;2023-12-20T04:34:59;7.90;99.90
22813;DHT22;11573;51.334;3.244;2023-12-20T04:37:26;8.00;99.90
22813;DHT22;11573;51.334;3.244;2023-12-20T04:39:53;8.00;99.90
22813;DHT22;11573;51.334;3.244;2023-12-20T04:42:20;8.00;99.90
22813;DHT22;11573;51.334;3.244;2023-12-20T04:44:47;8.00;99.90
22813;DHT22;11573;51.334;3.244;2023-12-20T04:47:14;8.00;99.90
22813;DHT22;11573;51.334;3.244;2023-12-20T04:49:41;8.10;99.90
22813;DHT22;11573;51.334;3.244;2023-12-20T04:52:08;8.10;99.90
22813;DHT22;11573;51.334;3.244;2023-12-20T04:54:35;8.10;99.90
22813;DHT22;11573;51.334;3.244;2023-12-20T04:57:02;8.00;99.90
22813;DHT22;11573;51.334;3.244;2023-12-20T04:59:29;8.00;99.90
22813;DHT22;11573;51.334;3.244;2023-12-20T05:01:56;8.10;99.90
22813;DHT22;11573;51.334;3.244;2023-12-20T05:04:24;8.10;99.90
22813;DHT22;11573;51.334;3.244;2023-12-20T05:06:51;8.10;99.90
22813;DHT22;11573;51.334;3.244;2023-12-20T05:09:18;8.10;99.90
22813;DHT22;11573;51.334;3.244;2023-12-20T05:11:45;8.10;99.90
22813;DHT22;11573;51.334;3.244;2023-12-20T05:14:12;8.10;99.90
22813;DHT22;11573;51.334;3.244;2023-12-20T05:16:39;8.00;99.90
22813;DHT22;11573;51.334;3.244;2023-12-20T05:19:06;8.00;99.90
22813;DHT22;11573;51.334;3.244;2023-12-20T05:21:33;8.00;99.90
22813;DHT22;11573;51.334;3.244;2023-12-20T05:24:00;8.00;99.90
22813;DHT22;11573;51.334;3.244;2023-12-20T05:26:27;8.00;99.90
22813;DHT22;11573;51.334;3.244;2023-12-20T05:28:56;8.10;99.90
22813;DHT22;11573;51.334;3.244;2023-12-20T05:31:23;8.00;99.90
22813;DHT22;11573;51.334;3.244;2023-12-20T05:33:50;8.00;99.90
22813;DHT22;11573;51.334;3.244;2023-12-20T05:36:18;8.00;99.90
22813;DHT22;11573;51.334;3.244;2023-12-20T05:38:45;8.00;99.90
22813;DHT22;11573;51.334;3.244;2023-12-20T05:41:12;8.10;99.90
22813;DHT22;11573;51.334;3.244;2023-12-20T05:43:40;8.10;99.90
22813;DHT22;11573;51.334;3.244;2023-12-20T05:46:07;8.20;99.90
22813;DHT22;11573;51.334;3.244;2023-12-20T05:48:34;8.30;99.90
22813;DHT22;11573;51.334;3.244;2023-12-20T05:51:01;8.20;99.90
22813;DHT22;11573;51.334;3.244;2023-12-20T05:53:28;8.30;99.90
22813;DHT22;11573;51.334;3.244;2023-12-20T05:55:55;8.20;99.90
22813;DHT22;11573;51.334;3.244;2023-12-20T05:58:22;8.10;99.90
22813;DHT22;11573;51.334;3.244;2023-12-20T06:00:49;8.10;99.90
22813;DHT22;11573;51.334;3.244;2023-12-20T06:03:16;8.00;99.90
22813;DHT22;11573;51.334;3.244;2023-12-20T06:05:43;8.00;99.90
22813;DHT22;11573;51.334;3.244;2023-12-20T06:08:10;8.00;99.90
22813;DHT22;11573;51.334;3.244;2023-12-20T06:10:37;7.90;99.90
22813;DHT22;11573;51.334;3.244;2023-12-20T06:13:04;7.90;99.90
22813;DHT22;11573;51.334;3.244;2023-12-20T06:15:33;7.90;99.90
22813;DHT22;11573;51.334;3.244;2023-12-20T06:18:00;8.00;99.90
22813;DHT22;11573;51.334;3.244;2023-12-20T06:20:27;8.00;99.90
22813;DHT22;11573;51.334;3.244;2023-12-20T06:22:54;7.90;99.90
22813;DHT22;11573;51.334;3.244;2023-12-20T06:25:21;7.90;99.90
22813;DHT22;11573;51.334;3.244;2023-12-20T06:27:48;7.90;99.90
22813;DHT22;11573;51.334;3.244;2023-12-20T06:30:16;7.90;99.90
22813;DHT22;11573;51.334;3.244;2023-12-20T06:32:43;7.90;99.90
22813;DHT22;11573;51.334;3.244;2023-12-20T06:35:10;7.90;99.90
22813;DHT22;11573;51.334;3.244;2023-12-20T06:37:37;7.90;99.90
22813;DHT22;11573;51.334;3.244;2023-12-20T06:40:04;7.90;99.90
22813;DHT22;11573;51.334;3.244;2023-12-20T06:42:32;7.90;99.90
22813;DHT22;11573;51.334;3.244;2023-12-20T06:45:09;8.00;99.90
22813;DHT22;11573;51.334;3.244;2023-12-20T06:47:36;7.90;99.90
22813;DHT22;11573;51.334;3.244;2023-12-20T06:50:04;7.90;99.90
22813;DHT22;11573;51.334;3.244;2023-12-20T06:52:31;7.90;99.90
22813;DHT22;11573;51.334;3.244;2023-12-20T06:54:58;8.00;99.90
22813;DHT22;11573;51.334;3.244;2023-12-20T06:57:25;7.90;99.90
22813;DHT22;11573;51.334;3.244;2023-12-20T06:59:53;7.90;99.90
22813;DHT22;11573;51.334;3.244;2023-12-20T07:02:20;8.00;99.90
22813;DHT22;11573;51.334;3.244;2023-12-20T07:04:47;8.00;99.90
22813;DHT22;11573;51.334;3.244;2023-12-20T07:07:14;8.00;99.90
22813;DHT22;11573;51.334;3.244;2023-12-20T07:09:41;8.00;99.90
22813;DHT22;11573;51.334;3.244;2023-12-20T07:12:09;8.00;99.90
22813;DHT22;11573;51.334;3.244;2023-12-20T07:14:36;8.00;99.90
22813;DHT22;11573;51.334;3.244;2023-12-20T07:17:03;7.90;99.90
22813;DHT22;11573;51.334;3.244;2023-12-20T07:19:30;7.90;99.90
22813;DHT22;11573;51.334;3.244;2023-12-20T07:21:57;7.90;99.90
22813;DHT22;11573;51.334;3.244;2023-12-20T07:24:24;8.00;99.90
22813;DHT22;11573;51.334;3.244;2023-12-20T07:26:51;8.00;99.90
22813;DHT22;11573;51.334;3.244;2023-12-20T07:29:18;8.00;99.90
22813;DHT22;11573;51.334;3.244;2023-12-20T07:31:45;8.00;99.90
22813;DHT22;11573;51.334;3.244;2023-12-20T07:34:12;8.00;99.90
22813;DHT22;11573;51.334;3.244;2023-12-20T07:36:39;8.00;99.90
22813;DHT22;11573;51.334;3.244;2023-12-20T07:39:06;7.90;99.90
22813;DHT22;11573;51.334;3.244;2023-12-20T07:41:34;7.90;99.90
22813;DHT22;11573;51.334;3.244;2023-12-20T07:44:01;7.90;99.90
22813;DHT22;11573;51.334;3.244;2023-12-20T07:46:28;8.00;99.90
22813;DHT22;11573;51.334;3.244;2023-12-20T07:48:55;7.90;99.90
22813;DHT22;11573;51.334;3.244;2023-12-20T07:51:22;7.90;99.90
22813;DHT22;11573;51.334;3.244;2023-12-20T07:53:49;8.00;99.90
22813;DHT22;11573;51.334;3.244;2023-12-20T07:56:17;8.00;99.90
22813;DHT22;11573;51.334;3.244;2023-12-20T07:58:45;8.00;99.90
22813;DHT22;11573;51.334;3.244;2023-12-20T08:01:19;8.00;99.90
22813;DHT22;11573;51.334;3.244;2023-12-20T08:03:49;8.00;99.90
22813;DHT22;11573;51.334;3.244;2023-12-20T08:06:16;8.00;99.90
22813;DHT22;11573;51.334;3.244;2023-12-20T08:08:44;8.00;99.90
22813;DHT22;11573;51.334;3.244;2023-12-20T08:11:18;8.10;99.90
22813;DHT22;11573;51.334;3.244;2023-12-20T08:13:45;8.10;99.90
22813;DHT22;11573;51.334;3.244;2023-12-20T08:16:12;8.20;99.90
22813;DHT22;11573;51.334;3.244;2023-12-20T08:18:41;8.30;99.90
22813;DHT22;11573;51.334;3.244;2023-12-20T08:21:08;8.40;99.90
22813;DHT22;11573;51.334;3.244;2023-12-20T08:23:35;8.50;99.90
22813;DHT22;11573;51.334;3.244;2023-12-20T08:26:06;8.50;99.90
22813;DHT22;11573;51.334;3.244;2023-12-20T08:28:34;8.50;99.90
22813;DHT22;11573;51.334;3.244;2023-12-20T08:31:01;8.50;99.90
22813;DHT22;11573;51.334;3.244;2023-12-20T08:33:28;8.60;99.90
22813;DHT22;11573;51.334;3.244;2023-12-20T08:35:55;8.60;99.90
22813;DHT22;11573;51.334;3.244;2023-12-20T08:38:22;8.50;99.90
22813;DHT22;11573;51.334;3.244;2023-12-20T08:40:49;8.60;99.90
22813;DHT22;11573;51.334;3.244;2023-12-20T08:43:16;8.60;99.90
22813;DHT22;11573;51.334;3.244;2023-12-20T08:45:43;8.70;99.90
22813;DHT22;11573;51.334;3.244;2023-12-20T08:48:09;8.70;99.90
22813;DHT22;11573;51.334;3.244;2023-12-20T08:50:37;8.80;99.90
22813;DHT22;11573;51.334;3.244;2023-12-20T08:53:05;8.80;99.90
22813;DHT22;11573;51.334;3.244;2023-12-20T08:55:32;8.90;99.90
22813;DHT22;11573;51.334;3.244;2023-12-20T08:58:00;8.90;99.90
22813;DHT22;11573;51.334;3.244;2023-12-20T09:00:26;8.90;99.90
22813;DHT22;11573;51.334;3.244;2023-12-20T09:02:54;8.80;99.90
22813;DHT22;11573;51.334;3.244;2023-12-20T09:05:21;8.80;99.90
22813;DHT22;11573;51.334;3.244;2023-12-20T09:07:49;8.80;99.90
22813;DHT22;11573;51.334;3.244;2023-12-20T09:10:17;8.80;99.90
22813;DHT22;11573;51.334;3.244;2023-12-20T09:12:50;8.90;99.90
22813;DHT22;11573;51.334;3.244;2023-12-20T09:15:17;8.90;99.90
22813;DHT22;11573;51.334;3.244;2023-12-20T09:17:44;9.00;99.90
22813;DHT22;11573;51.334;3.244;2023-12-20T09:20:12;9.10;99.90
22813;DHT22;11573;51.334;3.244;2023-12-20T09:22:40;9.10;99.90
22813;DHT22;11573;51.334;3.244;2023-12-20T09:25:09;9.10;99.90
22813;DHT22;11573;51.334;3.244;2023-12-20T09:27:37;9.20;99.90
22813;DHT22;11573;51.334;3.244;2023-12-20T09:30:05;9.20;99.90
22813;DHT22;11573;51.334;3.244;2023-12-20T09:32:32;9.20;99.90
22813;DHT22;11573;51.334;3.244;2023-12-20T09:34:59;9.30;99.90
22813;DHT22;11573;51.334;3.244;2023-12-20T09:37:27;9.30;99.90
22813;DHT22;11573;51.334;3.244;2023-12-20T09:39:54;9.40;99.90
22813;DHT22;11573;51.334;3.244;2023-12-20T09:42:29;9.40;99.90
22813;DHT22;11573;51.334;3.244;2023-12-20T09:44:59;9.40;99.90
22813;DHT22;11573;51.334;3.244;2023-12-20T09:47:28;9.50;99.90
22813;DHT22;11573;51.334;3.244;2023-12-20T09:49:56;9.50;99.90
22813;DHT22;11573;51.334;3.244;2023-12-20T09:52:24;9.50;99.90
22813;DHT22;11573;51.334;3.244;2023-12-20T09:54:53;9.50;99.90
22813;DHT22;11573;51.334;3.244;2023-12-20T09:57:21;9.50;99.90
22813;DHT22;11573;51.334;3.244;2023-12-20T09:59:48;9.50;99.90
22813;DHT22;11573;51.334;3.244;2023-12-20T10:02:18;9.40;99.90
22813;DHT22;11573;51.334;3.244;2023-12-20T10:04:47;9.40;99.90
22813;DHT22;11573;51.334;3.244;2023-12-20T10:07:15;9.40;99.90
22813;DHT22;11573;51.334;3.244;2023-12-20T10:09:42;9.40;99.90
22813;DHT22;11573;51.334;3.244;2023-12-20T10:12:10;9.40;99.90
22813;DHT22;11573;51.334;3.244;2023-12-20T10:14:38;9.30;99.90
22813;DHT22;11573;51.334;3.244;2023-12-20T10:17:06;9.30;99.90
22813;DHT22;11573;51.334;3.244;2023-12-20T10:19:33;9.30;99.90
22813;DHT22;11573;51.334;3.244;2023-12-20T10:22:00;9.30;99.90
22813;DHT22;11573;51.334;3.244;2023-12-20T10:24:29;9.30;99.90
22813;DHT22;11573;51.334;3.244;2023-12-20T10:27:06;9.30;99.90
22813;DHT22;11573;51.334;3.244;2023-12-20T10:29:37;9.50;99.90
22813;DHT22;11573;51.334;3.244;2023-12-20T10:32:25;9.60;99.90
22813;DHT22;11573;51.334;3.244;2023-12-20T10:34:53;9.50;99.90
22813;DHT22;11573;51.334;3.244;2023-12-20T10:37:21;9.50;99.90
22813;DHT22;11573;51.334;3.244;2023-12-20T10:39:50;9.50;99.90
22813;DHT22;11573;51.334;3.244;2023-12-20T10:42:26;9.50;99.90
22813;DHT22;11573;51.334;3.244;2023-12-20T10:44:54;9.60;99.90
22813;DHT22;11573;51.334;3.244;2023-12-20T10:47:21;9.60;99.90
22813;DHT22;11573;51.334;3.244;2023-12-20T10:49:48;9.70;99.90
22813;DHT22;11573;51.334;3.244;2023-12-20T10:52:16;9.80;99.90
22813;DHT22;11573;51.334;3.244;2023-12-20T10:54:44;9.80;99.90
22813;DHT22;11573;51.334;3.244;2023-12-20T10:57:12;9.80;99.90
22813;DHT22;11573;51.334;3.244;2023-12-20T10:59:39;9.80;99.90
22813;DHT22;11573;51.334;3.244;2023-12-20T11:02:06;9.80;99.90
22813;DHT22;11573;51.334;3.244;2023-12-20T11:04:50;9.80;99.90
22813;DHT22;11573;51.334;3.244;2023-12-20T11:07:33;9.80;99.90
22813;DHT22;11573;51.334;3.244;2023-12-20T11:10:25;9.90;99.90
22813;DHT22;11573;51.334;3.244;2023-12-20T11:13:12;10.00;99.90
22813;DHT22;11573;51.334;3.244;2023-12-20T11:15:43;10.00;99.90
22813;DHT22;11573;51.334;3.244;2023-12-20T11:18:10;10.00;99.90
22813;DHT22;11573;51.334;3.244;2023-12-20T11:20:41;10.00;99.90
22813;DHT22;11573;51.334;3.244;2023-12-20T11:23:09;10.00;99.90
22813;DHT22;11573;51.334;3.244;2023-12-20T11:25:52;9.90;99.90
22813;DHT22;11573;51.334;3.244;2023-12-20T11:28:24;9.80;99.90
22813;DHT22;11573;51.334;3.244;2023-12-20T11:30:58;9.80;99.90
22813;DHT22;11573;51.334;3.244;2023-12-20T11:33:37;10.00;99.90
22813;DHT22;11573;51.334;3.244;2023-12-20T11:36:13;10.20;99.90
22813;DHT22;11573;51.334;3.244;2023-12-20T11:38:57;10.20;99.90
22813;DHT22;11573;51.334;3.244;2023-12-20T11:41:25;10.30;99.90
22813;DHT22;11573;51.334;3.244;2023-12-20T11:43:56;10.30;99.90
22813;DHT22;11573;51.334;3.244;2023-12-20T11:46:23;10.30;99.90
22813;DHT22;11573;51.334;3.244;2023-12-20T11:48:50;10.40;99.90
22813;DHT22;11573;51.334;3.244;2023-12-20T11:51:18;10.40;99.90
22813;DHT22;11573;51.334;3.244;2023-12-20T11:53:50;10.40;99.90
22813;DHT22;11573;51.334;3.244;2023-12-20T11:56:18;10.50;99.90
22813;DHT22;11573;51.334;3.244;2023-12-20T11:58:44;10.60;99.90
22813;DHT22;11573;51.334;3.244;2023-12-20T12:01:14;10.60;99.90
22813;DHT22;11573;51.334;3.244;2023-12-20T12:03:41;10.50;99.90
22813;DHT22;11573;51.334;3.244;2023-12-20T12:06:09;10.50;99.90
22813;DHT22;11573;51.334;3.244;2023-12-20T12:08:37;10.50;99.90
22813;DHT22;11573;51.334;3.244;2023-12-20T12:11:04;10.40;99.90
22813;DHT22;11573;51.334;3.244;2023-12-20T12:13:31;10.30;99.90
22813;DHT22;11573;51.334;3.244;2023-12-20T12:15:59;10.40;99.90
22813;DHT22;11573;51.334;3.244;2023-12-20T12:18:26;10.60;99.90
22813;DHT22;11573;51.334;3.244;2023-12-20T12:21:00;10.60;99.90
22813;DHT22;11573;51.334;3.244;2023-12-20T12:23:28;10.70;99.90
22813;DHT22;11573;51.334;3.244;2023-12-20T12:25:56;10.90;99.90
22813;DHT22;11573;51.334;3.244;2023-12-20T12:28:26;10.80;99.90
22813;DHT22;11573;51.334;3.244;2023-12-20T12:30:58;10.70;99.90
22813;DHT22;11573;51.334;3.244;2023-12-20T12:33:26;10.50;99.90
22813;DHT22;11573;51.334;3.244;2023-12-20T12:35:54;10.50;99.90
22813;DHT22;11573;51.334;3.244;2023-12-20T12:38:22;10.50;99.90
22813;DHT22;11573;51.334;3.244;2023-12-20T12:40:50;10.60;99.90
22813;DHT22;11573;51.334;3.244;2023-12-20T12:43:20;10.60;99.90
22813;DHT22;11573;51.334;3.244;2023-12-20T12:45:50;10.60;99.90
22813;DHT22;11573;51.334;3.244;2023-12-20T12:48:17;10.70;99.90
22813;DHT22;11573;51.334;3.244;2023-12-20T12:50:46;10.50;99.90
22813;DHT22;11573;51.334;3.244;2023-12-20T12:53:13;10.50;99.90
22813;DHT22;11573;51.334;3.244;2023-12-20T12:55:40;10.60;99.90
22813;DHT22;11573;51.334;3.244;2023-12-20T12:58:07;10.50;99.90
22813;DHT22;11573;51.334;3.244;2023-12-20T13:00:34;10.40;99.90
22813;DHT22;11573;51.334;3.244;2023-12-20T13:03:01;10.40;99.90
22813;DHT22;11573;51.334;3.244;2023-12-20T13:05:28;10.20;99.90
22813;DHT22;11573;51.334;3.244;2023-12-20T13:07:56;10.20;99.90
22813;DHT22;11573;51.334;3.244;2023-12-20T13:10:23;10.20;99.90
22813;DHT22;11573;51.334;3.244;2023-12-20T13:12:50;10.20;99.90
22813;DHT22;11573;51.334;3.244;2023-12-20T13:15:18;10.20;99.90
22813;DHT22;11573;51.334;3.244;2023-12-20T13:17:46;10.20;99.90
22813;DHT22;11573;51.334;3.244;2023-12-20T13:20:13;10.20;99.90
22813;DHT22;11573;51.334;3.244;2023-12-20T13:22:40;10.20;99.90
22813;DHT22;11573;51.334;3.244;2023-12-20T13:25:07;10.20;99.90
22813;DHT22;11573;51.334;3.244;2023-12-20T13:27:35;10.10;99.90
22813;DHT22;11573;51.334;3.244;2023-12-20T13:30:02;10.10;99.90
22813;DHT22;11573;51.334;3.244;2023-12-20T13:32:30;10.20;99.90
22813;DHT22;11573;51.334;3.244;2023-12-20T13:34:57;10.20;99.90
22813;DHT22;11573;51.334;3.244;2023-12-20T13:37:25;10.30;99.90
22813;DHT22;11573;51.334;3.244;2023-12-20T13:39:52;10.10;99.90
22813;DHT22;11573;51.334;3.244;2023-12-20T13:42:19;10.00;99.90
22813;DHT22;11573;51.334;3.244;2023-12-20T13:44:47;10.00;99.90
22813;DHT22;11573;51.334;3.244;2023-12-20T13:47:14;10.10;99.90
22813;DHT22;11573;51.334;3.244;2023-12-20T13:49:41;10.20;99.90
22813;DHT22;11573;51.334;3.244;2023-12-20T13:52:08;10.20;99.90
22813;DHT22;11573;51.334;3.244;2023-12-20T13:54:35;10.20;99.90
22813;DHT22;11573;51.334;3.244;2023-12-20T13:57:02;10.20;99.90
22813;DHT22;11573;51.334;3.244;2023-12-20T13:59:42;10.30;99.90
22813;DHT22;11573;51.334;3.244;2023-12-20T14:02:09;10.20;99.90
22813;DHT22;11573;51.334;3.244;2023-12-20T14:04:36;10.20;99.90
22813;DHT22;11573;51.334;3.244;2023-12-20T14:07:10;10.20;99.90
22813;DHT22;11573;51.334;3.244;2023-12-20T14:09:40;10.20;99.90
22813;DHT22;11573;51.334;3.244;2023-12-20T14:12:13;10.10;99.90
22813;DHT22;11573;51.334;3.244;2023-12-20T14:14:41;10.10;99.90
22813;DHT22;11573;51.334;3.244;2023-12-20T14:17:07;10.10;99.90
22813;DHT22;11573;51.334;3.244;2023-12-20T14:19:35;10.00;99.90
22813;DHT22;11573;51.334;3.244;2023-12-20T14:22:03;10.00;99.90
22813;DHT22;11573;51.334;3.244;2023-12-20T14:24:31;10.10;99.90
22813;DHT22;11573;51.334;3.244;2023-12-20T14:26:59;10.10;99.90
22813;DHT22;11573;51.334;3.244;2023-12-20T14:29:26;10.00;99.90
22813;DHT22;11573;51.334;3.244;2023-12-20T14:31:54;10.00;99.90
22813;DHT22;11573;51.334;3.244;2023-12-20T14:34:21;10.00;99.90
22813;DHT22;11573;51.334;3.244;2023-12-20T14:36:48;10.00;99.90
22813;DHT22;11573;51.334;3.244;2023-12-20T14:39:15;10.00;99.90
22813;DHT22;11573;51.334;3.244;2023-12-20T14:41:42;10.00;99.90
22813;DHT22;11573;51.334;3.244;2023-12-20T14:44:09;10.00;99.90
22813;DHT22;11573;51.334;3.244;2023-12-20T14:46:36;10.00;99.90
22813;DHT22;11573;51.334;3.244;2023-12-20T14:49:07;10.00;99.90
22813;DHT22;11573;51.334;3.244;2023-12-20T14:51:35;10.00;99.90
22813;DHT22;11573;51.334;3.244;2023-12-20T14:54:04;10.00;99.90
22813;DHT22;11573;51.334;3.244;2023-12-20T14:56:32;10.00;99.90
22813;DHT22;11573;51.334;3.244;2023-12-20T14:58:59;10.00;99.90
22813;DHT22;11573;51.334;3.244;2023-12-20T15:01:29;10.00;99.90
22813;DHT22;11573;51.334;3.244;2023-12-20T15:03:58;9.90;99.90
22813;DHT22;11573;51.334;3.244;2023-12-20T15:06:25;9.90;99.90
22813;DHT22;11573;51.334;3.244;2023-12-20T15:08:52;9.90;99.90
22813;DHT22;11573;51.334;3.244;2023-12-20T15:11:19;9.90;99.90
22813;DHT22;11573;51.334;3.244;2023-12-20T15:13:46;9.90;99.90
22813;DHT22;11573;51.334;3.244;2023-12-20T15:16:21;9.90;99.90
22813;DHT22;11573;51.334;3.244;2023-12-20T15:18:49;9.90;99.90
22813;DHT22;11573;51.334;3.244;2023-12-20T15:21:17;9.90;99.90
22813;DHT22;11573;51.334;3.244;2023-12-20T15:23:44;9.90;99.90
22813;DHT22;11573;51.334;3.244;2023-12-20T15:26:19;9.90;99.90
22813;DHT22;11573;51.334;3.244;2023-12-20T15:28:47;9.90;99.90
22813;DHT22;11573;51.334;3.244;2023-12-20T15:31:14;9.80;99.90
22813;DHT22;11573;51.334;3.244;2023-12-20T15:33:42;9.90;99.90
22813;DHT22;11573;51.334;3.244;2023-12-20T15:36:09;9.80;99.90
22813;DHT22;11573;51.334;3.244;2023-12-20T15:38:36;9.90;99.90
22813;DHT22;11573;51.334;3.244;2023-12-20T15:41:03;9.90;99.90
22813;DHT22;11573;51.334;3.244;2023-12-20T15:43:30;9.90;99.90
22813;DHT22;11573;51.334;3.244;2023-12-20T15:45:57;9.90;99.90
22813;DHT22;11573;51.334;3.244;2023-12-20T15:48:24;9.90;99.90